sensor_id;sensor_type;location;lat;lon;timestamp;P1;durP1;ratioP1;P2;durP2;ratioP2
2972;SDS011;1496;51.404;7.232;2023-11-19T00:00:34;3.50;;;1.57;;
2972;SDS011;1496;51.404;7.232;2023-11-19T00:03:00;3.37;;;1.60;;
2972;SDS011;1496;51.404;7.232;2023-11-19T00:05:26;3.30;;;1.90;;
2972;SDS011;1496;51.404;7.232;2023-11-19T00:07:53;2.50;;;2.00;;
2972;SDS011;1496;51.404;7.232;2023-11-19T00:10:19;2.30;;;2.10;;
2972;SDS011;1496;51.404;7.232;2023-11-19T00:12:46;3.07;;;2.30;;
2972;SDS011;1496;51.404;7.232;2023-11-19T00:15:14;3.40;;;2.90;;
2972;SDS011;1496;51.404;7.232;2023-11-19T00:17:40;4.00;;;3.60;;
2972;SDS011;1496;51.404;7.232;2023-11-19T00:20:10;3.30;;;3.00;;
2972;SDS011;1496;51.404;7.232;2023-11-19T00:22:40;2.70;;;2.50;;
2972;SDS011;1496;51.404;7.232;2023-11-19T00:25:08;5.73;;;2.97;;
2972;SDS011;1496;51.404;7.232;2023-11-19T00:27:34;4.50;;;3.40;;
2972;SDS011;1496;51.404;7.232;2023-11-19T00:29:59;3.73;;;3.30;;
2972;SDS011;1496;51.404;7.232;2023-11-19T00:32:25;4.23;;;3.40;;
2972;SDS011;1496;51.404;7.232;2023-11-19T00:34:51;6.13;;;3.53;;
2972;SDS011;1496;51.404;7.232;2023-11-19T00:37:17;3.73;;;3.20;;
2972;SDS011;1496;51.404;7.232;2023-11-19T00:39:42;4.90;;;3.60;;
2972;SDS011;1496;51.404;7.232;2023-11-19T00:42:11;4.23;;;3.40;;
2972;SDS011;1496;51.404;7.232;2023-11-19T00:44:37;6.03;;;3.80;;
2972;SDS011;1496;51.404;7.232;2023-11-19T00:47:03;6.10;;;3.90;;
2972;SDS011;1496;51.404;7.232;2023-11-19T00:49:30;3.87;;;3.43;;
2972;SDS011;1496;51.404;7.232;2023-11-19T00:51:57;9.60;;;4.40;;
2972;SDS011;1496;51.404;7.232;2023-11-19T00:54:24;6.63;;;4.43;;
2972;SDS011;1496;51.404;7.232;2023-11-19T00:56:51;14.03;;;3.93;;
2972;SDS011;1496;51.404;7.232;2023-11-19T00:59:17;4.67;;;4.10;;
2972;SDS011;1496;51.404;7.232;2023-11-19T01:01:43;5.47;;;3.63;;
2972;SDS011;1496;51.404;7.232;2023-11-19T01:04:09;4.50;;;3.77;;
2972;SDS011;1496;51.404;7.232;2023-11-19T01:06:35;6.60;;;4.10;;
2972;SDS011;1496;51.404;7.232;2023-11-19T01:09:01;5.50;;;4.40;;
2972;SDS011;1496;51.404;7.232;2023-11-19T01:11:27;6.70;;;4.60;;
2972;SDS011;1496;51.404;7.232;2023-11-19T01:13:53;7.87;;;4.30;;
2972;SDS011;1496;51.404;7.232;2023-11-19T01:16:19;5.40;;;4.17;;
2972;SDS011;1496;51.404;7.232;2023-11-19T01:18:46;3.60;;;3.30;;
2972;SDS011;1496;51.404;7.232;2023-11-19T01:21:13;8.13;;;4.13;;
2972;SDS011;1496;51.404;7.232;2023-11-19T01:23:40;4.10;;;3.70;;
2972;SDS011;1496;51.404;7.232;2023-11-19T01:26:08;5.27;;;3.13;;
2972;SDS011;1496;51.404;7.232;2023-11-19T01:28:35;3.53;;;3.23;;
2972;SDS011;1496;51.404;7.232;2023-11-19T01:31:01;3.70;;;3.40;;
2972;SDS011;1496;51.404;7.232;2023-11-19T01:33:27;5.20;;;3.10;;
2972;SDS011;1496;51.404;7.232;2023-11-19T01:35:53;2.90;;;2.40;;
2972;SDS011;1496;51.404;7.232;2023-11-19T01:38:18;2.93;;;2.33;;
2972;SDS011;1496;51.404;7.232;2023-11-19T01:40:44;2.43;;;2.00;;
2972;SDS011;1496;51.404;7.232;2023-11-19T01:43:10;4.10;;;2.03;;
2972;SDS011;1496;51.404;7.232;2023-11-19T01:45:40;2.27;;;1.90;;
2972;SDS011;1496;51.404;7.232;2023-11-19T01:48:05;2.70;;;2.10;;
2972;SDS011;1496;51.404;7.232;2023-11-19T01:50:31;2.30;;;1.90;;
2972;SDS011;1496;51.404;7.232;2023-11-19T01:52:58;2.77;;;2.40;;
2972;SDS011;1496;51.404;7.232;2023-11-19T01:55:24;3.63;;;2.73;;
2972;SDS011;1496;51.404;7.232;2023-11-19T01:57:53;4.03;;;3.07;;
2972;SDS011;1496;51.404;7.232;2023-11-19T02:00:22;4.40;;;3.20;;
2972;SDS011;1496;51.404;7.232;2023-11-19T02:02:49;3.40;;;2.83;;
2972;SDS011;1496;51.404;7.232;2023-11-19T02:05:17;3.77;;;2.67;;
2972;SDS011;1496;51.404;7.232;2023-11-19T02:07:43;4.40;;;2.90;;
2972;SDS011;1496;51.404;7.232;2023-11-19T02:10:09;8.23;;;3.13;;
2972;SDS011;1496;51.404;7.232;2023-11-19T02:12:40;5.23;;;3.27;;
2972;SDS011;1496;51.404;7.232;2023-11-19T02:15:08;4.27;;;3.13;;
2972;SDS011;1496;51.404;7.232;2023-11-19T02:17:34;4.43;;;3.60;;
2972;SDS011;1496;51.404;7.232;2023-11-19T02:20:02;6.20;;;3.70;;
2972;SDS011;1496;51.404;7.232;2023-11-19T02:22:31;6.50;;;3.60;;
2972;SDS011;1496;51.404;7.232;2023-11-19T02:25:01;4.50;;;3.17;;
2972;SDS011;1496;51.404;7.232;2023-11-19T02:30:22;6.70;;;2.97;;
2972;SDS011;1496;51.404;7.232;2023-11-19T02:32:57;4.43;;;2.87;;
2972;SDS011;1496;51.404;7.232;2023-11-19T02:35:26;4.40;;;2.70;;
2972;SDS011;1496;51.404;7.232;2023-11-19T02:37:52;5.90;;;2.50;;
2972;SDS011;1496;51.404;7.232;2023-11-19T02:40:21;5.93;;;1.90;;
2972;SDS011;1496;51.404;7.232;2023-11-19T02:42:49;8.73;;;2.47;;
2972;SDS011;1496;51.404;7.232;2023-11-19T02:45:14;2.87;;;2.17;;
2972;SDS011;1496;51.404;7.232;2023-11-19T02:47:41;4.00;;;2.03;;
2972;SDS011;1496;51.404;7.232;2023-11-19T02:50:10;8.33;;;2.20;;
2972;SDS011;1496;51.404;7.232;2023-11-19T02:52:42;7.50;;;2.30;;
2972;SDS011;1496;51.404;7.232;2023-11-19T02:55:11;6.83;;;2.37;;
2972;SDS011;1496;51.404;7.232;2023-11-19T02:57:40;5.60;;;2.63;;
2972;SDS011;1496;51.404;7.232;2023-11-19T03:00:21;9.17;;;3.30;;
2972;SDS011;1496;51.404;7.232;2023-11-19T03:03:00;8.83;;;2.60;;
2972;SDS011;1496;51.404;7.232;2023-11-19T03:05:35;5.70;;;2.50;;
2972;SDS011;1496;51.404;7.232;2023-11-19T03:08:01;7.80;;;2.63;;
2972;SDS011;1496;51.404;7.232;2023-11-19T03:10:26;7.80;;;3.07;;
2972;SDS011;1496;51.404;7.232;2023-11-19T03:12:54;6.00;;;3.00;;
2972;SDS011;1496;51.404;7.232;2023-11-19T03:15:22;9.10;;;2.80;;
2972;SDS011;1496;51.404;7.232;2023-11-19T03:17:47;7.67;;;3.43;;
2972;SDS011;1496;51.404;7.232;2023-11-19T03:20:13;12.77;;;3.17;;
2972;SDS011;1496;51.404;7.232;2023-11-19T03:22:42;7.10;;;3.30;;
2972;SDS011;1496;51.404;7.232;2023-11-19T03:25:08;15.93;;;3.20;;
2972;SDS011;1496;51.404;7.232;2023-11-19T03:27:37;11.60;;;3.27;;
2972;SDS011;1496;51.404;7.232;2023-11-19T03:30:09;18.20;;;4.10;;
2972;SDS011;1496;51.404;7.232;2023-11-19T03:32:35;12.97;;;3.37;;
2972;SDS011;1496;51.404;7.232;2023-11-19T03:35:02;7.43;;;3.20;;
2972;SDS011;1496;51.404;7.232;2023-11-19T03:37:29;13.50;;;3.40;;
2972;SDS011;1496;51.404;7.232;2023-11-19T03:39:56;14.70;;;4.17;;
2972;SDS011;1496;51.404;7.232;2023-11-19T03:42:25;16.30;;;4.70;;
2972;SDS011;1496;51.404;7.232;2023-11-19T03:44:56;5.57;;;2.60;;
2972;SDS011;1496;51.404;7.232;2023-11-19T03:47:22;19.07;;;4.90;;
2972;SDS011;1496;51.404;7.232;2023-11-19T03:49:49;14.87;;;4.00;;
2972;SDS011;1496;51.404;7.232;2023-11-19T03:52:15;14.90;;;4.20;;
2972;SDS011;1496;51.404;7.232;2023-11-19T03:54:42;8.07;;;3.60;;
2972;SDS011;1496;51.404;7.232;2023-11-19T03:57:08;10.63;;;3.80;;
2972;SDS011;1496;51.404;7.232;2023-11-19T03:59:36;11.37;;;3.47;;
2972;SDS011;1496;51.404;7.232;2023-11-19T04:02:02;17.40;;;6.00;;
2972;SDS011;1496;51.404;7.232;2023-11-19T04:04:28;11.53;;;4.00;;
2972;SDS011;1496;51.404;7.232;2023-11-19T04:06:56;17.83;;;3.90;;
2972;SDS011;1496;51.404;7.232;2023-11-19T04:09:23;16.03;;;2.73;;
2972;SDS011;1496;51.404;7.232;2023-11-19T04:11:49;18.67;;;3.07;;
2972;SDS011;1496;51.404;7.232;2023-11-19T04:14:14;7.27;;;2.17;;
2972;SDS011;1496;51.404;7.232;2023-11-19T04:16:43;14.23;;;3.37;;
2972;SDS011;1496;51.404;7.232;2023-11-19T04:19:11;9.33;;;2.60;;
2972;SDS011;1496;51.404;7.232;2023-11-19T04:21:40;11.50;;;2.67;;
2972;SDS011;1496;51.404;7.232;2023-11-19T04:24:07;9.17;;;2.97;;
2972;SDS011;1496;51.404;7.232;2023-11-19T04:26:34;10.67;;;2.10;;
2972;SDS011;1496;51.404;7.232;2023-11-19T04:28:59;14.93;;;2.90;;
2972;SDS011;1496;51.404;7.232;2023-11-19T04:31:29;8.60;;;2.53;;
2972;SDS011;1496;51.404;7.232;2023-11-19T04:33:56;10.40;;;2.80;;
2972;SDS011;1496;51.404;7.232;2023-11-19T04:36:22;10.53;;;2.73;;
2972;SDS011;1496;51.404;7.232;2023-11-19T04:38:49;9.90;;;2.80;;
2972;SDS011;1496;51.404;7.232;2023-11-19T04:41:15;13.00;;;3.00;;
2972;SDS011;1496;51.404;7.232;2023-11-19T04:43:41;10.50;;;2.97;;
2972;SDS011;1496;51.404;7.232;2023-11-19T04:46:07;15.87;;;3.30;;
2972;SDS011;1496;51.404;7.232;2023-11-19T04:48:34;14.87;;;2.17;;
2972;SDS011;1496;51.404;7.232;2023-11-19T04:51:00;14.30;;;2.53;;
2972;SDS011;1496;51.404;7.232;2023-11-19T04:53:25;14.20;;;3.10;;
2972;SDS011;1496;51.404;7.232;2023-11-19T04:55:51;17.90;;;3.83;;
2972;SDS011;1496;51.404;7.232;2023-11-19T04:58:17;10.23;;;3.00;;
2972;SDS011;1496;51.404;7.232;2023-11-19T05:00:42;19.07;;;2.80;;
2972;SDS011;1496;51.404;7.232;2023-11-19T05:03:08;13.83;;;3.10;;
2972;SDS011;1496;51.404;7.232;2023-11-19T05:05:34;14.20;;;3.77;;
2972;SDS011;1496;51.404;7.232;2023-11-19T05:07:59;17.70;;;3.17;;
2972;SDS011;1496;51.404;7.232;2023-11-19T05:10:25;11.50;;;3.00;;
2972;SDS011;1496;51.404;7.232;2023-11-19T05:12:51;15.23;;;2.80;;
2972;SDS011;1496;51.404;7.232;2023-11-19T05:15:17;8.33;;;2.53;;
2972;SDS011;1496;51.404;7.232;2023-11-19T05:17:42;27.53;;;4.80;;
2972;SDS011;1496;51.404;7.232;2023-11-19T05:20:08;19.10;;;4.00;;
2972;SDS011;1496;51.404;7.232;2023-11-19T05:22:41;17.00;;;3.20;;
2972;SDS011;1496;51.404;7.232;2023-11-19T05:25:08;17.33;;;2.87;;
2972;SDS011;1496;51.404;7.232;2023-11-19T05:27:34;9.03;;;2.90;;
2972;SDS011;1496;51.404;7.232;2023-11-19T05:30:01;16.30;;;4.93;;
2972;SDS011;1496;51.404;7.232;2023-11-19T05:32:28;7.97;;;3.50;;
2972;SDS011;1496;51.404;7.232;2023-11-19T05:34:53;12.97;;;3.40;;
2972;SDS011;1496;51.404;7.232;2023-11-19T05:37:20;12.60;;;4.10;;
2972;SDS011;1496;51.404;7.232;2023-11-19T05:39:46;20.07;;;4.17;;
2972;SDS011;1496;51.404;7.232;2023-11-19T05:42:12;25.80;;;3.40;;
2972;SDS011;1496;51.404;7.232;2023-11-19T05:44:37;15.80;;;3.50;;
2972;SDS011;1496;51.404;7.232;2023-11-19T05:47:03;21.97;;;3.80;;
2972;SDS011;1496;51.404;7.232;2023-11-19T05:49:29;15.90;;;2.77;;
2972;SDS011;1496;51.404;7.232;2023-11-19T05:51:55;20.00;;;3.83;;
2972;SDS011;1496;51.404;7.232;2023-11-19T05:54:21;12.37;;;2.67;;
2972;SDS011;1496;51.404;7.232;2023-11-19T05:56:47;25.07;;;3.40;;
2972;SDS011;1496;51.404;7.232;2023-11-19T05:59:14;13.93;;;3.00;;
2972;SDS011;1496;51.404;7.232;2023-11-19T06:01:43;17.83;;;4.20;;
2972;SDS011;1496;51.404;7.232;2023-11-19T06:04:09;12.43;;;2.67;;
2972;SDS011;1496;51.404;7.232;2023-11-19T06:06:35;12.20;;;3.37;;
2972;SDS011;1496;51.404;7.232;2023-11-19T06:09:01;20.07;;;3.43;;
2972;SDS011;1496;51.404;7.232;2023-11-19T06:11:28;16.43;;;3.10;;
2972;SDS011;1496;51.404;7.232;2023-11-19T06:13:53;14.30;;;2.77;;
2972;SDS011;1496;51.404;7.232;2023-11-19T06:16:19;17.20;;;3.07;;
2972;SDS011;1496;51.404;7.232;2023-11-19T06:18:45;21.53;;;4.03;;
2972;SDS011;1496;51.404;7.232;2023-11-19T06:21:11;12.33;;;3.20;;
2972;SDS011;1496;51.404;7.232;2023-11-19T06:23:37;15.90;;;2.90;;
2972;SDS011;1496;51.404;7.232;2023-11-19T06:26:03;11.93;;;3.10;;
2972;SDS011;1496;51.404;7.232;2023-11-19T06:28:30;14.97;;;3.20;;
2972;SDS011;1496;51.404;7.232;2023-11-19T06:30:56;15.87;;;2.90;;
2972;SDS011;1496;51.404;7.232;2023-11-19T06:33:23;14.53;;;3.03;;
2972;SDS011;1496;51.404;7.232;2023-11-19T06:35:49;8.53;;;3.03;;
2972;SDS011;1496;51.404;7.232;2023-11-19T06:38:15;12.23;;;2.83;;
2972;SDS011;1496;51.404;7.232;2023-11-19T06:40:41;29.17;;;3.77;;
2972;SDS011;1496;51.404;7.232;2023-11-19T06:43:06;15.50;;;4.10;;
2972;SDS011;1496;51.404;7.232;2023-11-19T06:45:34;14.30;;;2.97;;
2972;SDS011;1496;51.404;7.232;2023-11-19T06:48:01;8.53;;;3.17;;
2972;SDS011;1496;51.404;7.232;2023-11-19T06:50:31;21.90;;;3.70;;
2972;SDS011;1496;51.404;7.232;2023-11-19T06:52:57;18.23;;;3.10;;
2972;SDS011;1496;51.404;7.232;2023-11-19T06:55:22;18.20;;;3.87;;
2972;SDS011;1496;51.404;7.232;2023-11-19T06:57:48;22.80;;;3.40;;
2972;SDS011;1496;51.404;7.232;2023-11-19T07:00:14;20.80;;;2.80;;
2972;SDS011;1496;51.404;7.232;2023-11-19T07:02:40;13.10;;;2.90;;
2972;SDS011;1496;51.404;7.232;2023-11-19T07:05:05;11.77;;;2.83;;
2972;SDS011;1496;51.404;7.232;2023-11-19T07:07:33;16.10;;;3.20;;
2972;SDS011;1496;51.404;7.232;2023-11-19T07:10:00;15.17;;;3.30;;
2972;SDS011;1496;51.404;7.232;2023-11-19T07:12:27;16.73;;;3.87;;
2972;SDS011;1496;51.404;7.232;2023-11-19T07:14:52;14.20;;;3.13;;
2972;SDS011;1496;51.404;7.232;2023-11-19T07:17:20;14.00;;;2.80;;
2972;SDS011;1496;51.404;7.232;2023-11-19T07:19:46;13.20;;;2.73;;
2972;SDS011;1496;51.404;7.232;2023-11-19T07:22:12;15.53;;;2.70;;
2972;SDS011;1496;51.404;7.232;2023-11-19T07:24:40;15.27;;;3.40;;
2972;SDS011;1496;51.404;7.232;2023-11-19T07:27:06;17.50;;;2.83;;
2972;SDS011;1496;51.404;7.232;2023-11-19T07:29:34;13.30;;;2.63;;
2972;SDS011;1496;51.404;7.232;2023-11-19T07:32:02;13.90;;;3.20;;
2972;SDS011;1496;51.404;7.232;2023-11-19T07:34:30;18.53;;;4.47;;
2972;SDS011;1496;51.404;7.232;2023-11-19T07:36:56;17.83;;;3.00;;
2972;SDS011;1496;51.404;7.232;2023-11-19T07:39:27;22.70;;;4.70;;
2972;SDS011;1496;51.404;7.232;2023-11-19T07:41:53;13.07;;;3.00;;
2972;SDS011;1496;51.404;7.232;2023-11-19T07:44:19;10.63;;;2.80;;
2972;SDS011;1496;51.404;7.232;2023-11-19T07:46:46;15.17;;;3.60;;
2972;SDS011;1496;51.404;7.232;2023-11-19T07:49:13;18.47;;;3.70;;
2972;SDS011;1496;51.404;7.232;2023-11-19T07:51:39;13.70;;;2.83;;
2972;SDS011;1496;51.404;7.232;2023-11-19T07:54:04;24.27;;;4.10;;
2972;SDS011;1496;51.404;7.232;2023-11-19T07:56:31;12.10;;;3.50;;
2972;SDS011;1496;51.404;7.232;2023-11-19T07:58:59;21.87;;;3.77;;
2972;SDS011;1496;51.404;7.232;2023-11-19T08:01:25;13.70;;;3.00;;
2972;SDS011;1496;51.404;7.232;2023-11-19T08:03:50;19.47;;;2.93;;
2972;SDS011;1496;51.404;7.232;2023-11-19T08:06:16;23.20;;;3.70;;
2972;SDS011;1496;51.404;7.232;2023-11-19T08:08:42;14.83;;;3.40;;
2972;SDS011;1496;51.404;7.232;2023-11-19T08:11:08;13.87;;;3.30;;
2972;SDS011;1496;51.404;7.232;2023-11-19T08:13:34;12.87;;;2.77;;
2972;SDS011;1496;51.404;7.232;2023-11-19T08:15:59;16.97;;;2.93;;
2972;SDS011;1496;51.404;7.232;2023-11-19T08:18:25;19.00;;;4.43;;
2972;SDS011;1496;51.404;7.232;2023-11-19T08:20:51;25.13;;;4.03;;
2972;SDS011;1496;51.404;7.232;2023-11-19T08:23:19;18.47;;;3.80;;
2972;SDS011;1496;51.404;7.232;2023-11-19T08:25:45;16.87;;;2.90;;
2972;SDS011;1496;51.404;7.232;2023-11-19T08:28:10;9.53;;;4.07;;
2972;SDS011;1496;51.404;7.232;2023-11-19T08:30:36;16.53;;;3.10;;
2972;SDS011;1496;51.404;7.232;2023-11-19T08:33:02;23.20;;;3.67;;
2972;SDS011;1496;51.404;7.232;2023-11-19T08:35:28;18.67;;;4.20;;
2972;SDS011;1496;51.404;7.232;2023-11-19T08:37:54;13.67;;;3.27;;
2972;SDS011;1496;51.404;7.232;2023-11-19T08:40:20;13.40;;;3.30;;
2972;SDS011;1496;51.404;7.232;2023-11-19T08:42:46;11.13;;;3.20;;
2972;SDS011;1496;51.404;7.232;2023-11-19T08:45:11;21.00;;;3.77;;
2972;SDS011;1496;51.404;7.232;2023-11-19T08:47:37;19.47;;;3.73;;
2972;SDS011;1496;51.404;7.232;2023-11-19T08:50:03;25.20;;;3.27;;
2972;SDS011;1496;51.404;7.232;2023-11-19T08:52:29;11.50;;;2.57;;
2972;SDS011;1496;51.404;7.232;2023-11-19T08:54:55;13.70;;;3.43;;
2972;SDS011;1496;51.404;7.232;2023-11-19T08:57:21;30.93;;;3.67;;
2972;SDS011;1496;51.404;7.232;2023-11-19T08:59:47;29.13;;;4.17;;
2972;SDS011;1496;51.404;7.232;2023-11-19T09:02:13;16.27;;;2.83;;
2972;SDS011;1496;51.404;7.232;2023-11-19T09:04:38;14.27;;;3.00;;
2972;SDS011;1496;51.404;7.232;2023-11-19T09:07:04;18.00;;;2.90;;
2972;SDS011;1496;51.404;7.232;2023-11-19T09:09:29;12.97;;;3.10;;
2972;SDS011;1496;51.404;7.232;2023-11-19T09:11:55;17.70;;;3.37;;
2972;SDS011;1496;51.404;7.232;2023-11-19T09:14:21;26.43;;;5.87;;
2972;SDS011;1496;51.404;7.232;2023-11-19T09:16:51;18.57;;;3.57;;
2972;SDS011;1496;51.404;7.232;2023-11-19T09:19:17;17.43;;;2.97;;
2972;SDS011;1496;51.404;7.232;2023-11-19T09:21:43;18.50;;;3.40;;
2972;SDS011;1496;51.404;7.232;2023-11-19T09:24:09;18.30;;;3.23;;
2972;SDS011;1496;51.404;7.232;2023-11-19T09:26:34;19.90;;;3.97;;
2972;SDS011;1496;51.404;7.232;2023-11-19T09:29:01;14.77;;;4.63;;
2972;SDS011;1496;51.404;7.232;2023-11-19T09:31:27;22.13;;;3.27;;
2972;SDS011;1496;51.404;7.232;2023-11-19T09:33:53;16.50;;;3.33;;
2972;SDS011;1496;51.404;7.232;2023-11-19T09:36:18;15.63;;;3.00;;
2972;SDS011;1496;51.404;7.232;2023-11-19T09:38:44;22.93;;;3.60;;
2972;SDS011;1496;51.404;7.232;2023-11-19T09:41:10;22.57;;;4.00;;
2972;SDS011;1496;51.404;7.232;2023-11-19T09:43:39;28.27;;;4.60;;
2972;SDS011;1496;51.404;7.232;2023-11-19T09:46:06;18.03;;;4.53;;
2972;SDS011;1496;51.404;7.232;2023-11-19T09:48:36;14.50;;;3.33;;
2972;SDS011;1496;51.404;7.232;2023-11-19T09:51:09;20.63;;;4.43;;
2972;SDS011;1496;51.404;7.232;2023-11-19T09:53:36;26.23;;;4.50;;
2972;SDS011;1496;51.404;7.232;2023-11-19T09:56:03;14.43;;;3.20;;
2972;SDS011;1496;51.404;7.232;2023-11-19T09:58:29;17.93;;;3.73;;
2972;SDS011;1496;51.404;7.232;2023-11-19T10:00:59;22.90;;;3.23;;
2972;SDS011;1496;51.404;7.232;2023-11-19T10:03:27;11.00;;;3.30;;
2972;SDS011;1496;51.404;7.232;2023-11-19T10:05:57;12.87;;;2.97;;
2972;SDS011;1496;51.404;7.232;2023-11-19T10:08:24;18.70;;;3.77;;
2972;SDS011;1496;51.404;7.232;2023-11-19T10:10:50;15.40;;;3.30;;
2972;SDS011;1496;51.404;7.232;2023-11-19T10:13:17;21.70;;;3.40;;
2972;SDS011;1496;51.404;7.232;2023-11-19T10:15:43;21.27;;;3.27;;
2972;SDS011;1496;51.404;7.232;2023-11-19T10:18:09;23.47;;;3.50;;
2972;SDS011;1496;51.404;7.232;2023-11-19T10:20:41;26.07;;;5.23;;
2972;SDS011;1496;51.404;7.232;2023-11-19T10:23:08;23.63;;;3.40;;
2972;SDS011;1496;51.404;7.232;2023-11-19T10:25:34;21.87;;;4.90;;
2972;SDS011;1496;51.404;7.232;2023-11-19T10:28:00;20.30;;;3.60;;
2972;SDS011;1496;51.404;7.232;2023-11-19T10:30:26;21.43;;;3.53;;
2972;SDS011;1496;51.404;7.232;2023-11-19T10:33:07;19.27;;;4.13;;
2972;SDS011;1496;51.404;7.232;2023-11-19T10:35:55;21.03;;;4.10;;
2972;SDS011;1496;51.404;7.232;2023-11-19T10:38:22;24.43;;;3.03;;
2972;SDS011;1496;51.404;7.232;2023-11-19T10:40:48;14.63;;;3.70;;
2972;SDS011;1496;51.404;7.232;2023-11-19T10:43:16;25.00;;;4.90;;
2972;SDS011;1496;51.404;7.232;2023-11-19T10:45:42;29.77;;;4.53;;
2972;SDS011;1496;51.404;7.232;2023-11-19T10:48:08;24.63;;;5.97;;
2972;SDS011;1496;51.404;7.232;2023-11-19T10:50:37;16.43;;;4.17;;
2972;SDS011;1496;51.404;7.232;2023-11-19T10:53:05;17.17;;;4.20;;
2972;SDS011;1496;51.404;7.232;2023-11-19T10:55:38;17.67;;;3.47;;
2972;SDS011;1496;51.404;7.232;2023-11-19T10:58:05;17.73;;;3.73;;
2972;SDS011;1496;51.404;7.232;2023-11-19T11:00:39;27.27;;;4.00;;
2972;SDS011;1496;51.404;7.232;2023-11-19T11:03:24;19.13;;;3.43;;
2972;SDS011;1496;51.404;7.232;2023-11-19T11:05:52;22.53;;;4.93;;
2972;SDS011;1496;51.404;7.232;2023-11-19T11:08:19;22.13;;;3.20;;
2972;SDS011;1496;51.404;7.232;2023-11-19T11:10:55;13.47;;;2.90;;
2972;SDS011;1496;51.404;7.232;2023-11-19T11:13:24;20.13;;;3.57;;
2972;SDS011;1496;51.404;7.232;2023-11-19T11:15:52;26.40;;;4.53;;
2972;SDS011;1496;51.404;7.232;2023-11-19T11:18:21;28.10;;;3.20;;
2972;SDS011;1496;51.404;7.232;2023-11-19T11:20:49;18.00;;;2.77;;
2972;SDS011;1496;51.404;7.232;2023-11-19T11:37:37;21.10;;;3.50;;
2972;SDS011;1496;51.404;7.232;2023-11-19T11:40:14;26.30;;;2.90;;
2972;SDS011;1496;51.404;7.232;2023-11-19T11:42:40;18.53;;;3.27;;
2972;SDS011;1496;51.404;7.232;2023-11-19T11:45:07;31.23;;;2.40;;
2972;SDS011;1496;51.404;7.232;2023-11-19T11:55:28;34.90;;;3.53;;
2972;SDS011;1496;51.404;7.232;2023-11-19T11:58:01;28.10;;;3.47;;
2972;SDS011;1496;51.404;7.232;2023-11-19T12:00:31;24.47;;;3.37;;
2972;SDS011;1496;51.404;7.232;2023-11-19T12:03:01;27.63;;;3.90;;
2972;SDS011;1496;51.404;7.232;2023-11-19T12:05:27;31.80;;;3.23;;
2972;SDS011;1496;51.404;7.232;2023-11-19T12:08:04;28.60;;;4.20;;
2972;SDS011;1496;51.404;7.232;2023-11-19T12:10:32;36.10;;;4.37;;
2972;SDS011;1496;51.404;7.232;2023-11-19T12:13:04;26.53;;;4.27;;
2972;SDS011;1496;51.404;7.232;2023-11-19T12:15:32;26.67;;;2.53;;
2972;SDS011;1496;51.404;7.232;2023-11-19T12:17:58;30.13;;;5.40;;
2972;SDS011;1496;51.404;7.232;2023-11-19T12:20:25;28.07;;;2.87;;
2972;SDS011;1496;51.404;7.232;2023-11-19T12:22:51;26.90;;;2.60;;
2972;SDS011;1496;51.404;7.232;2023-11-19T12:25:18;30.83;;;4.63;;
2972;SDS011;1496;51.404;7.232;2023-11-19T12:27:48;28.93;;;4.07;;
2972;SDS011;1496;51.404;7.232;2023-11-19T12:30:21;32.73;;;3.83;;
2972;SDS011;1496;51.404;7.232;2023-11-19T12:32:51;32.63;;;4.30;;
2972;SDS011;1496;51.404;7.232;2023-11-19T12:35:21;33.57;;;3.40;;
2972;SDS011;1496;51.404;7.232;2023-11-19T12:37:50;25.33;;;2.80;;
2972;SDS011;1496;51.404;7.232;2023-11-19T12:40:17;35.40;;;4.23;;
2972;SDS011;1496;51.404;7.232;2023-11-19T12:42:48;28.40;;;3.37;;
2972;SDS011;1496;51.404;7.232;2023-11-19T12:45:14;32.03;;;3.33;;
2972;SDS011;1496;51.404;7.232;2023-11-19T12:47:41;29.60;;;3.13;;
2972;SDS011;1496;51.404;7.232;2023-11-19T12:50:08;24.47;;;3.43;;
2972;SDS011;1496;51.404;7.232;2023-11-19T12:52:38;37.20;;;4.10;;
2972;SDS011;1496;51.404;7.232;2023-11-19T12:55:04;28.50;;;3.00;;
2972;SDS011;1496;51.404;7.232;2023-11-19T12:57:40;31.27;;;3.70;;
2972;SDS011;1496;51.404;7.232;2023-11-19T13:00:06;31.67;;;3.33;;
2972;SDS011;1496;51.404;7.232;2023-11-19T13:02:49;37.87;;;3.23;;
2972;SDS011;1496;51.404;7.232;2023-11-19T13:08:03;29.73;;;3.27;;
2972;SDS011;1496;51.404;7.232;2023-11-19T13:10:54;29.07;;;3.23;;
2972;SDS011;1496;51.404;7.232;2023-11-19T13:13:19;25.60;;;2.70;;
2972;SDS011;1496;51.404;7.232;2023-11-19T13:15:45;23.50;;;2.60;;
2972;SDS011;1496;51.404;7.232;2023-11-19T13:18:11;27.17;;;3.43;;
2972;SDS011;1496;51.404;7.232;2023-11-19T13:20:37;20.87;;;3.17;;
2972;SDS011;1496;51.404;7.232;2023-11-19T13:23:04;25.27;;;2.50;;
2972;SDS011;1496;51.404;7.232;2023-11-19T13:25:32;23.80;;;2.90;;
2972;SDS011;1496;51.404;7.232;2023-11-19T13:27:58;19.87;;;2.33;;
2972;SDS011;1496;51.404;7.232;2023-11-19T13:30:24;14.93;;;1.80;;
2972;SDS011;1496;51.404;7.232;2023-11-19T13:32:51;20.33;;;2.70;;
2972;SDS011;1496;51.404;7.232;2023-11-19T13:35:17;19.80;;;3.50;;
2972;SDS011;1496;51.404;7.232;2023-11-19T13:37:44;16.20;;;2.47;;
2972;SDS011;1496;51.404;7.232;2023-11-19T13:40:10;14.70;;;2.37;;
2972;SDS011;1496;51.404;7.232;2023-11-19T13:42:43;12.30;;;2.10;;
2972;SDS011;1496;51.404;7.232;2023-11-19T13:45:12;14.17;;;2.60;;
2972;SDS011;1496;51.404;7.232;2023-11-19T13:47:39;19.80;;;3.20;;
2972;SDS011;1496;51.404;7.232;2023-11-19T13:50:07;13.87;;;2.60;;
2972;SDS011;1496;51.404;7.232;2023-11-19T13:52:34;11.50;;;2.33;;
2972;SDS011;1496;51.404;7.232;2023-11-19T13:55:02;10.73;;;2.80;;
2972;SDS011;1496;51.404;7.232;2023-11-19T13:57:29;14.23;;;3.23;;
2972;SDS011;1496;51.404;7.232;2023-11-19T13:59:55;14.87;;;3.83;;
2972;SDS011;1496;51.404;7.232;2023-11-19T14:02:21;16.87;;;2.60;;
2972;SDS011;1496;51.404;7.232;2023-11-19T14:04:47;13.67;;;2.90;;
2972;SDS011;1496;51.404;7.232;2023-11-19T14:07:12;11.43;;;2.43;;
2972;SDS011;1496;51.404;7.232;2023-11-19T14:09:38;12.57;;;2.83;;
2972;SDS011;1496;51.404;7.232;2023-11-19T14:12:04;17.00;;;3.87;;
2972;SDS011;1496;51.404;7.232;2023-11-19T14:14:29;19.10;;;3.00;;
2972;SDS011;1496;51.404;7.232;2023-11-19T14:16:55;11.80;;;2.30;;
2972;SDS011;1496;51.404;7.232;2023-11-19T14:19:21;13.80;;;3.33;;
2972;SDS011;1496;51.404;7.232;2023-11-19T14:21:46;15.23;;;2.63;;
2972;SDS011;1496;51.404;7.232;2023-11-19T14:24:12;17.00;;;2.83;;
2972;SDS011;1496;51.404;7.232;2023-11-19T14:26:38;12.93;;;2.87;;
2972;SDS011;1496;51.404;7.232;2023-11-19T14:29:04;19.40;;;3.50;;
2972;SDS011;1496;51.404;7.232;2023-11-19T14:31:29;17.77;;;3.30;;
2972;SDS011;1496;51.404;7.232;2023-11-19T14:33:55;9.70;;;2.30;;
2972;SDS011;1496;51.404;7.232;2023-11-19T14:36:21;12.47;;;2.47;;
2972;SDS011;1496;51.404;7.232;2023-11-19T14:38:46;12.53;;;3.90;;
2972;SDS011;1496;51.404;7.232;2023-11-19T14:41:12;14.60;;;3.47;;
2972;SDS011;1496;51.404;7.232;2023-11-19T14:43:39;6.90;;;1.80;;
2972;SDS011;1496;51.404;7.232;2023-11-19T14:46:05;20.37;;;3.10;;
2972;SDS011;1496;51.404;7.232;2023-11-19T14:48:31;18.07;;;3.00;;
2972;SDS011;1496;51.404;7.232;2023-11-19T14:50:57;14.53;;;3.53;;
2972;SDS011;1496;51.404;7.232;2023-11-19T14:53:23;12.10;;;2.70;;
2972;SDS011;1496;51.404;7.232;2023-11-19T14:55:48;11.00;;;2.50;;
2972;SDS011;1496;51.404;7.232;2023-11-19T14:58:14;17.10;;;2.50;;
2972;SDS011;1496;51.404;7.232;2023-11-19T15:00:39;17.23;;;3.50;;
2972;SDS011;1496;51.404;7.232;2023-11-19T15:03:05;21.03;;;4.03;;
2972;SDS011;1496;51.404;7.232;2023-11-19T15:05:31;23.53;;;3.50;;
2972;SDS011;1496;51.404;7.232;2023-11-19T15:07:57;10.23;;;3.03;;
2972;SDS011;1496;51.404;7.232;2023-11-19T15:10:22;22.73;;;3.23;;
2972;SDS011;1496;51.404;7.232;2023-11-19T15:12:49;18.20;;;3.50;;
2972;SDS011;1496;51.404;7.232;2023-11-19T15:15:15;9.03;;;2.43;;
2972;SDS011;1496;51.404;7.232;2023-11-19T15:17:42;7.93;;;2.70;;
2972;SDS011;1496;51.404;7.232;2023-11-19T15:20:07;9.97;;;2.73;;
2972;SDS011;1496;51.404;7.232;2023-11-19T15:22:33;10.60;;;2.40;;
2972;SDS011;1496;51.404;7.232;2023-11-19T15:24:59;12.20;;;3.07;;
2972;SDS011;1496;51.404;7.232;2023-11-19T15:27:25;9.80;;;2.70;;
2972;SDS011;1496;51.404;7.232;2023-11-19T15:29:50;19.60;;;2.70;;
2972;SDS011;1496;51.404;7.232;2023-11-19T15:32:17;16.83;;;3.53;;